createdAt,value
2018-06-08T00:01:27.269Z,80.06
2018-06-08T00:03:54.995Z,80.56
2018-06-08T00:06:22.678Z,80.50
2018-06-08T00:08:50.406Z,79.74
2018-06-08T00:11:18.114Z,79.72
2018-06-08T00:13:45.769Z,79.09
2018-06-08T00:16:13.487Z,79.19
2018-06-08T00:18:41.188Z,80.46
2018-06-08T00:21:09.001Z,81.08
2018-06-08T00:23:36.679Z,80.17
2018-06-08T00:26:04.571Z,80.97
2018-06-08T00:28:32.247Z,80.59
2018-06-08T00:30:59.939Z,80.68
2018-06-08T00:33:27.641Z,81.17
2018-06-08T00:35:55.437Z,81.12
2018-06-08T00:38:23.101Z,80.77
2018-06-08T00:40:50.841Z,80.61
2018-06-08T00:43:18.695Z,80.69
2018-06-08T00:45:46.383Z,80.37
2018-06-08T00:48:14.062Z,79.64
2018-06-08T00:50:41.768Z,78.73
2018-06-08T00:53:09.451Z,78.63
2018-06-08T00:55:37.172Z,79.41
2018-06-08T00:58:04.895Z,79.40
2018-06-08T01:00:32.639Z,79.66
2018-06-08T01:03:00.347Z,79.69
2018-06-08T01:05:28.080Z,79.61
2018-06-08T01:07:55.758Z,79.66
2018-06-08T01:10:23.602Z,80.55
2018-06-08T01:12:51.330Z,80.26
2018-06-08T01:15:18.998Z,80.17
2018-06-08T01:17:46.790Z,79.52
2018-06-08T01:20:14.503Z,78.02
2018-06-08T01:22:42.249Z,78.67
2018-06-08T01:25:09.931Z,79.46
2018-06-08T01:27:37.598Z,80.48
2018-06-08T01:30:05.294Z,80.78
2018-06-08T01:32:33.027Z,80.04
2018-06-08T01:35:01.036Z,80.22
2018-06-08T01:37:29.014Z,80.35
2018-06-08T01:39:56.705Z,80.48
2018-06-08T01:42:24.430Z,79.78
2018-06-08T01:44:52.218Z,79.57
2018-06-08T01:47:19.931Z,80.41
2018-06-08T01:49:47.631Z,80.67
2018-06-08T01:52:15.375Z,80.18
2018-06-08T01:54:43.099Z,80.36
2018-06-08T01:57:10.782Z,80.81
2018-06-08T01:59:38.582Z,81.31
2018-06-08T02:02:07.209Z,81.69
2018-06-08T02:04:35.186Z,81.13
2018-06-08T02:07:02.861Z,81.01
2018-06-08T02:09:30.624Z,80.88
2018-06-08T02:11:58.347Z,81.39
2018-06-08T02:14:26.984Z,81.90
2018-06-08T02:16:54.680Z,81.52
2018-06-08T02:19:22.711Z,82.31
2018-06-08T02:21:50.486Z,82.49
2018-06-08T02:24:18.226Z,82.32
2018-06-08T02:26:45.919Z,82.21
2018-06-08T02:29:13.595Z,82.09
2018-06-08T02:31:41.242Z,81.91
2018-06-08T02:34:08.934Z,82.09
2018-06-08T02:36:36.669Z,82.49
2018-06-08T02:39:06.045Z,82.22
2018-06-08T02:41:33.710Z,82.41
2018-06-08T02:44:01.412Z,82.42
2018-06-08T02:46:29.088Z,82.59
2018-06-08T02:48:56.821Z,82.91
2018-06-08T02:51:24.476Z,82.29
2018-06-08T02:53:52.198Z,82.42
2018-06-08T02:56:20.310Z,82.41
2018-06-08T02:58:47.955Z,83.02
2018-06-08T03:01:15.606Z,83.11
2018-06-08T03:03:43.468Z,82.94
2018-06-08T03:06:11.203Z,83.12
2018-06-08T03:08:38.890Z,82.83
2018-06-08T03:11:06.534Z,82.93
2018-06-08T03:13:34.247Z,81.90
2018-06-08T03:16:01.896Z,81.19
2018-06-08T03:18:29.588Z,81.21
2018-06-08T03:20:57.330Z,81.35
2018-06-08T03:23:25.004Z,81.70
2018-06-08T03:25:52.694Z,81.96
2018-06-08T03:28:20.379Z,82.07
2018-06-08T03:30:48.299Z,82.09
2018-06-08T03:33:15.995Z,81.89
2018-06-08T03:35:43.710Z,81.49
2018-06-08T03:38:11.414Z,81.13
2018-06-08T03:40:39.109Z,81.23
2018-06-08T03:43:06.789Z,81.28
2018-06-08T03:45:34.490Z,81.66
2018-06-08T03:48:02.174Z,81.72
2018-06-08T03:50:29.868Z,81.79
2018-06-08T03:52:57.604Z,81.94
2018-06-08T03:55:25.319Z,80.89
2018-06-08T03:57:53.046Z,80.58
2018-06-08T04:00:20.735Z,80.23
2018-06-08T04:02:48.456Z,80.49
2018-06-08T04:05:16.154Z,79.32
2018-06-08T04:07:43.862Z,80.23
2018-06-08T04:10:11.650Z,79.66
2018-06-08T04:12:39.383Z,79.76
2018-06-08T04:15:07.115Z,80.02
2018-06-08T04:17:34.810Z,80.59
2018-06-08T04:20:02.527Z,80.18
2018-06-08T04:22:30.215Z,79.12
2018-06-08T04:24:57.891Z,78.25
2018-06-08T04:27:25.566Z,78.49
2018-06-08T04:29:53.895Z,78.41
2018-06-08T04:32:21.538Z,78.56
2018-06-08T04:34:49.236Z,78.96
2018-06-08T04:37:16.969Z,78.79
2018-06-08T04:39:44.667Z,77.64
2018-06-08T04:42:12.495Z,76.75
2018-06-08T04:44:40.205Z,76.04
2018-06-08T04:47:07.920Z,75.88
2018-06-08T04:49:35.593Z,75.22
2018-06-08T04:52:03.275Z,75.39
2018-06-08T04:54:30.991Z,75.27
2018-06-08T04:56:58.684Z,75.34
2018-06-08T04:59:26.404Z,75.20
2018-06-08T05:01:54.190Z,74.45
2018-06-08T05:04:21.881Z,75.20
2018-06-08T05:06:49.525Z,75.32
2018-06-08T05:09:17.236Z,75.62
2018-06-08T05:11:45.080Z,74.78
2018-06-08T05:14:12.801Z,74.69
2018-06-08T05:16:40.449Z,73.78
2018-06-08T05:19:08.122Z,73.64
2018-06-08T05:21:35.806Z,72.25
2018-06-08T05:24:03.479Z,72.59
2018-06-08T05:26:31.162Z,73.73
2018-06-08T05:28:58.902Z,74.53
2018-06-08T05:31:26.627Z,74.32
2018-06-08T05:33:54.342Z,74.38
2018-06-08T05:36:21.998Z,72.95
2018-06-08T05:38:49.746Z,72.15
2018-06-08T05:41:17.430Z,71.96
2018-06-08T05:43:45.118Z,70.22
2018-06-08T05:46:12.815Z,69.48
2018-06-08T05:48:40.483Z,67.84
2018-06-08T05:51:08.184Z,66.63
2018-06-08T05:53:35.972Z,66.30
2018-06-08T05:56:03.578Z,67.42
2018-06-08T05:58:31.298Z,67.03
2018-06-08T06:00:58.988Z,66.43
2018-06-08T06:03:26.716Z,65.62
2018-06-08T06:05:54.416Z,63.70
2018-06-08T06:08:22.099Z,64.20
2018-06-08T06:10:49.740Z,62.16
2018-06-08T06:13:17.503Z,62.34
2018-06-08T06:15:45.178Z,61.98
2018-06-08T06:18:13.603Z,61.24
2018-06-08T06:20:41.383Z,60.62
2018-06-08T06:23:09.111Z,60.96
2018-06-08T06:25:36.812Z,60.72
2018-06-08T06:28:04.570Z,60.39
2018-06-08T06:30:32.291Z,59.33
2018-06-08T06:32:59.983Z,59.57
2018-06-08T06:35:27.704Z,59.40
2018-06-08T06:37:55.410Z,57.94
2018-06-08T06:40:23.094Z,58.41
2018-06-08T06:42:50.787Z,57.51
2018-06-08T06:45:18.462Z,55.93
2018-06-08T06:47:46.138Z,55.18
2018-06-08T06:50:13.860Z,53.77
2018-06-08T06:52:41.522Z,52.30
2018-06-08T06:55:09.247Z,52.44
2018-06-08T06:57:36.951Z,50.85
2018-06-08T07:00:04.710Z,51.27
2018-06-08T07:02:32.534Z,49.92
2018-06-08T07:05:00.252Z,50.32
2018-06-08T07:07:27.906Z,49.37
2018-06-08T07:09:55.527Z,47.58
2018-06-08T07:12:23.226Z,47.44
2018-06-08T07:14:50.930Z,46.20
2018-06-08T07:17:18.686Z,47.15
2018-06-08T07:19:46.377Z,47.18
2018-06-08T07:22:14.107Z,46.35
2018-06-08T07:24:41.823Z,46.27
2018-06-08T07:27:09.486Z,45.05
2018-06-08T07:29:37.187Z,44.86
2018-06-08T07:32:04.922Z,46.01
2018-06-08T07:34:32.599Z,44.76
2018-06-08T07:37:00.304Z,46.12
2018-06-08T07:39:27.969Z,44.78
2018-06-08T07:41:55.677Z,44.39
2018-06-08T07:44:23.401Z,43.26
2018-06-08T07:46:51.212Z,42.51
2018-06-08T07:49:18.864Z,41.54
2018-06-08T07:51:46.572Z,42.08
2018-06-08T07:54:14.278Z,40.60
2018-06-08T07:56:41.971Z,39.14
2018-06-08T07:59:09.655Z,39.35
2018-06-08T08:01:37.335Z,39.82
2018-06-08T08:04:04.996Z,38.56
2018-06-08T08:06:32.711Z,39.91
2018-06-08T08:09:00.399Z,38.80
2018-06-08T08:11:28.210Z,39.23
2018-06-08T08:13:55.924Z,39.47
2018-06-08T08:16:23.585Z,38.33
2018-06-08T08:18:51.223Z,38.17
2018-06-08T08:21:18.900Z,37.64
2018-06-08T08:23:47.342Z,36.95
2018-06-08T08:26:15.035Z,36.87
2018-06-08T08:28:42.671Z,37.43
2018-06-08T08:31:10.379Z,36.24
2018-06-08T08:33:38.052Z,36.13
2018-06-08T08:36:05.726Z,36.40
2018-06-08T08:38:33.396Z,36.38
2018-06-08T08:41:01.102Z,36.44
2018-06-08T08:43:28.751Z,36.35
2018-06-08T08:45:56.503Z,36.23
2018-06-08T08:48:24.177Z,34.69
2018-06-08T08:50:51.870Z,33.01
2018-06-08T08:53:19.552Z,34.95
2018-06-08T08:55:47.175Z,35.69
2018-06-08T08:58:14.830Z,36.25
2018-06-08T09:00:42.458Z,35.20
2018-06-08T09:03:10.134Z,34.77
2018-06-08T09:05:37.835Z,35.56
2018-06-08T09:08:05.522Z,35.45
2018-06-08T09:10:33.220Z,33.75
2018-06-08T09:13:01.207Z,34.95
2018-06-08T09:15:28.876Z,34.33
2018-06-08T09:17:56.536Z,33.96
2018-06-08T09:20:24.218Z,33.86
2018-06-08T09:22:51.931Z,33.87
2018-06-08T09:25:19.607Z,33.60
2018-06-08T09:27:47.279Z,34.02
2018-06-08T09:30:14.894Z,35.18
2018-06-08T09:32:42.529Z,35.54
2018-06-08T09:35:10.203Z,35.47
2018-06-08T09:37:37.867Z,32.74
2018-06-08T09:40:05.599Z,33.29
2018-06-08T09:42:33.291Z,33.15
2018-06-08T09:45:00.977Z,32.52
2018-06-08T09:47:28.628Z,30.57
2018-06-08T09:49:56.307Z,31.38
2018-06-08T09:52:23.998Z,31.87
2018-06-08T09:54:51.733Z,32.79
2018-06-08T09:57:19.390Z,31.90
2018-06-08T09:59:47.052Z,32.94
2018-06-08T10:02:14.717Z,32.82
2018-06-08T10:04:42.402Z,31.83
2018-06-08T10:07:10.120Z,32.15
2018-06-08T10:09:37.782Z,29.26
2018-06-08T10:12:05.467Z,29.96
2018-06-08T10:14:33.123Z,30.07
2018-06-08T10:17:00.792Z,30.34
2018-06-08T10:19:28.447Z,29.88
2018-06-08T10:21:56.099Z,30.86
2018-06-08T10:24:23.790Z,30.54
2018-06-08T10:26:51.426Z,30.03
2018-06-08T10:29:19.095Z,29.17
2018-06-08T10:31:46.769Z,32.00
2018-06-08T10:34:14.567Z,31.72
2018-06-08T10:36:42.241Z,31.24
2018-06-08T10:39:09.943Z,31.99
2018-06-08T10:41:37.663Z,31.82
2018-06-08T10:44:05.370Z,31.64
2018-06-08T10:46:33.133Z,31.76
2018-06-08T10:49:00.796Z,27.83
2018-06-08T10:51:28.482Z,29.57
2018-06-08T10:53:56.200Z,31.15
2018-06-08T10:56:23.838Z,33.78
2018-06-08T10:58:51.516Z,34.47
2018-06-08T11:01:19.164Z,37.06
2018-06-08T11:03:46.860Z,36.42
2018-06-08T11:06:14.532Z,37.60
2018-06-08T11:08:42.229Z,37.99
2018-06-08T11:11:09.864Z,39.00
2018-06-08T11:13:37.534Z,39.05
2018-06-08T11:16:05.183Z,39.29
2018-06-08T11:18:32.851Z,41.16
2018-06-08T11:21:00.486Z,41.87
2018-06-08T11:23:28.196Z,42.25
2018-06-08T11:25:55.811Z,41.21
2018-06-08T11:28:23.506Z,39.29
2018-06-08T11:30:51.196Z,41.27
2018-06-08T11:33:18.895Z,41.21
2018-06-08T11:35:46.604Z,41.94
2018-06-08T11:38:14.287Z,41.23
2018-06-08T11:40:41.978Z,42.40
2018-06-08T11:43:09.652Z,41.15
2018-06-08T11:45:37.298Z,40.80
2018-06-08T11:48:04.993Z,40.53
2018-06-08T11:50:32.638Z,42.20
2018-06-08T11:53:00.420Z,41.92
2018-06-08T11:55:27.967Z,42.25
2018-06-08T11:57:55.653Z,42.47
2018-06-08T12:00:23.326Z,43.04
2018-06-08T12:02:50.998Z,42.18
2018-06-08T12:05:18.628Z,42.97
2018-06-08T12:07:46.287Z,42.60
2018-06-08T12:10:14.000Z,43.38
2018-06-08T12:12:41.657Z,44.26
2018-06-08T12:15:09.351Z,43.39
2018-06-08T12:17:37.032Z,44.02
2018-06-08T12:20:04.771Z,42.52
2018-06-08T12:22:32.508Z,42.21
2018-06-08T12:25:00.205Z,41.39
2018-06-08T12:27:27.895Z,41.60
2018-06-08T12:29:55.638Z,41.46
2018-06-08T12:32:23.288Z,41.92
2018-06-08T12:34:51.023Z,42.75
2018-06-08T12:37:18.704Z,41.69
2018-06-08T12:39:46.404Z,44.41
2018-06-08T12:42:14.484Z,45.75
2018-06-08T12:44:42.165Z,46.99
2018-06-08T12:47:09.840Z,48.55
2018-06-08T12:49:37.559Z,49.93
2018-06-08T12:52:05.258Z,51.92
2018-06-08T12:54:32.950Z,51.84
2018-06-08T12:57:00.660Z,51.72
2018-06-08T12:59:28.376Z,51.35
2018-06-08T13:01:56.137Z,52.33
2018-06-08T13:04:23.844Z,53.66
2018-06-08T13:06:51.506Z,53.54
2018-06-08T13:09:19.258Z,55.38
2018-06-08T13:11:46.975Z,55.13
2018-06-08T13:14:14.711Z,55.54
2018-06-08T13:16:42.446Z,55.78
2018-06-08T13:19:10.195Z,56.72
2018-06-08T13:21:37.901Z,57.23
2018-06-08T13:24:05.641Z,57.52
2018-06-08T13:26:33.367Z,56.88
2018-06-08T13:29:01.097Z,56.96
2018-06-08T13:31:28.779Z,58.84
2018-06-08T13:33:56.554Z,55.65
2018-06-08T13:36:24.258Z,55.12
2018-06-08T13:38:51.966Z,53.38
2018-06-08T13:41:19.680Z,53.05
2018-06-08T13:43:47.405Z,52.44
2018-06-08T13:46:20.687Z,51.83
2018-06-08T13:48:48.461Z,52.19
2018-06-08T13:51:16.198Z,51.53
2018-06-08T13:53:43.920Z,52.08
2018-06-08T13:56:11.637Z,51.98
2018-06-08T13:58:39.361Z,51.09
2018-06-08T14:01:07.072Z,50.85
2018-06-08T14:03:34.773Z,50.08
2018-06-08T14:06:02.531Z,51.52
2018-06-08T14:08:30.265Z,51.51
2018-06-08T14:10:58.163Z,50.48
2018-06-08T14:13:25.880Z,51.70
2018-06-08T14:15:53.576Z,51.03
2018-06-08T14:18:21.344Z,50.61
2018-06-08T14:20:51.755Z,51.21
2018-06-08T14:23:19.494Z,50.88
2018-06-08T14:25:47.215Z,49.70
2018-06-08T14:28:14.966Z,49.55
2018-06-08T14:30:42.638Z,47.50
2018-06-08T14:33:10.358Z,48.01
2018-06-08T14:35:38.073Z,48.08
2018-06-08T14:38:05.793Z,48.69
2018-06-08T14:40:33.541Z,49.05
2018-06-08T14:43:01.243Z,48.18
2018-06-08T14:45:29.028Z,48.48
2018-06-08T14:47:56.683Z,48.37
2018-06-08T14:50:24.439Z,47.66
2018-06-08T14:52:52.101Z,47.56
2018-06-08T14:55:19.814Z,47.96
2018-06-08T14:57:48.090Z,47.67
2018-06-08T15:00:15.814Z,47.29
2018-06-08T15:02:43.502Z,48.64
2018-06-08T15:05:11.182Z,47.91
2018-06-08T15:07:38.922Z,48.83
2018-06-08T15:10:06.602Z,48.36
2018-06-08T15:12:34.304Z,47.58
2018-06-08T15:15:02.002Z,47.28
2018-06-08T15:17:29.733Z,49.02
2018-06-08T15:19:57.431Z,48.99
2018-06-08T15:22:25.154Z,51.06
2018-06-08T15:24:52.877Z,51.18
2018-06-08T15:27:20.591Z,50.77
2018-06-08T15:29:48.287Z,50.76
2018-06-08T15:32:16.089Z,50.47
2018-06-08T15:34:43.780Z,50.77
2018-06-08T15:37:11.514Z,51.18
2018-06-08T15:39:39.313Z,50.95
2018-06-08T15:42:07.018Z,51.63
2018-06-08T15:44:35.093Z,51.47
2018-06-08T15:47:02.842Z,52.10
2018-06-08T15:49:30.653Z,53.83
2018-06-08T15:51:58.366Z,54.11
2018-06-08T15:54:26.152Z,54.70
2018-06-08T15:56:53.858Z,53.78
2018-06-08T15:59:21.576Z,53.92
2018-06-08T16:01:49.283Z,53.92
2018-06-08T16:04:17.030Z,54.53
2018-06-08T16:06:44.714Z,54.33
2018-06-08T16:09:12.411Z,54.35
2018-06-08T16:11:40.229Z,54.98
2018-06-08T16:14:07.936Z,54.61
2018-06-08T16:16:35.699Z,54.83
2018-06-08T16:19:03.470Z,53.95
2018-06-08T16:21:31.201Z,54.59
2018-06-08T16:23:58.894Z,55.32
2018-06-08T16:26:26.643Z,55.16
2018-06-08T16:28:54.372Z,55.01
2018-06-08T16:31:22.094Z,55.83
2018-06-08T16:33:49.841Z,55.43
2018-06-08T16:36:17.585Z,55.03
2018-06-08T16:38:45.404Z,55.23
2018-06-08T16:41:13.129Z,55.58
2018-06-08T16:43:40.846Z,55.69
2018-06-08T16:46:08.588Z,55.76
2018-06-08T16:48:36.353Z,55.63
2018-06-08T16:51:04.140Z,55.65
2018-06-08T16:53:31.846Z,56.93
2018-06-08T16:55:59.540Z,56.94
2018-06-08T16:58:27.271Z,57.98
2018-06-08T17:00:55.071Z,56.85
2018-06-08T17:03:22.790Z,55.37
2018-06-08T17:05:50.494Z,55.31
2018-06-08T17:08:18.214Z,55.75
2018-06-08T17:10:45.898Z,56.08
2018-06-08T17:13:13.605Z,56.53
2018-06-08T17:15:41.363Z,57.15
2018-06-08T17:18:09.235Z,56.82
2018-06-08T17:20:37.058Z,55.97
2018-06-08T17:23:04.829Z,55.71
2018-06-08T17:25:32.578Z,56.03
2018-06-08T17:28:00.549Z,55.89
2018-06-08T17:30:28.306Z,55.93
2018-06-08T17:32:56.013Z,55.54
2018-06-08T17:35:23.712Z,56.10
2018-06-08T17:37:51.418Z,56.46
2018-06-08T17:40:19.134Z,56.07
2018-06-08T17:42:46.850Z,56.15
2018-06-08T17:45:14.559Z,56.83
2018-06-08T17:47:42.247Z,57.64
2018-06-08T17:50:10.003Z,59.98
2018-06-08T17:52:37.711Z,61.38
2018-06-08T17:55:05.438Z,61.82
2018-06-08T17:57:33.243Z,61.10
2018-06-08T18:00:00.992Z,61.72
2018-06-08T18:02:28.686Z,61.47
2018-06-08T18:04:56.400Z,60.26
2018-06-08T18:07:24.094Z,59.04
2018-06-08T18:09:51.801Z,58.37
2018-06-08T18:12:19.523Z,58.58
2018-06-08T18:14:47.398Z,58.78
2018-06-08T18:17:15.101Z,58.48
2018-06-08T18:19:42.804Z,59.08
2018-06-08T18:22:10.633Z,59.06
2018-06-08T18:24:38.254Z,59.27
2018-06-08T18:27:05.977Z,59.61
2018-06-08T18:29:33.697Z,59.52
2018-06-08T18:32:01.443Z,59.12
2018-06-08T18:34:29.170Z,59.21
2018-06-08T18:36:56.919Z,59.79
2018-06-08T18:39:24.602Z,60.40
2018-06-08T18:41:52.331Z,62.14
2018-06-08T18:44:20.036Z,62.96
2018-06-08T18:46:47.848Z,62.93
2018-06-08T18:49:15.595Z,63.49
2018-06-08T18:51:43.323Z,65.64
2018-06-08T18:54:11.105Z,66.09
2018-06-08T18:56:38.863Z,66.37
2018-06-08T18:59:06.632Z,66.49
2018-06-08T19:01:34.417Z,68.40
2018-06-08T19:04:02.120Z,67.34
2018-06-08T19:06:29.808Z,68.99
2018-06-08T19:08:57.535Z,69.68
2018-06-08T19:11:25.264Z,72.80
2018-06-08T19:13:53.963Z,72.27
2018-06-08T19:16:21.702Z,73.02
2018-06-08T19:18:49.396Z,72.71
2018-06-08T19:21:17.111Z,73.13
2018-06-08T19:23:44.811Z,74.56
2018-06-08T19:26:12.582Z,75.72
2018-06-08T19:28:40.343Z,77.41
2018-06-08T19:31:08.100Z,75.56
2018-06-08T19:33:35.866Z,76.15
2018-06-08T19:36:03.597Z,77.37
2018-06-08T19:38:31.323Z,79.69
2018-06-08T19:40:59.106Z,79.31
2018-06-08T19:43:26.862Z,80.77
2018-06-08T19:45:54.594Z,81.07
2018-06-08T19:48:22.342Z,81.21
2018-06-08T19:50:50.124Z,81.83
2018-06-08T19:53:17.874Z,82.55
2018-06-08T19:55:45.623Z,81.91
2018-06-08T19:58:13.332Z,80.90
2018-06-08T20:00:41.059Z,81.53
2018-06-08T20:03:08.804Z,81.60
2018-06-08T20:05:36.514Z,81.15
2018-06-08T20:08:04.212Z,80.64
2018-06-08T20:10:32.020Z,81.49
2018-06-08T20:12:59.944Z,81.39
2018-06-08T20:15:27.644Z,81.52
2018-06-08T20:17:55.421Z,80.80
2018-06-08T20:20:23.163Z,80.39
2018-06-08T20:22:50.886Z,79.48
2018-06-08T20:25:18.617Z,80.78
2018-06-08T20:27:46.466Z,81.34
2018-06-08T20:30:14.172Z,81.53
2018-06-08T20:32:41.936Z,82.54
2018-06-08T20:35:09.655Z,82.88
2018-06-08T20:37:37.463Z,82.08
2018-06-08T20:40:05.557Z,81.55
2018-06-08T20:42:33.340Z,81.52
2018-06-08T20:45:01.090Z,81.56
2018-06-08T20:47:28.900Z,81.72
2018-06-08T20:49:56.674Z,81.24
2018-06-08T20:52:24.385Z,81.08
2018-06-08T20:54:52.185Z,81.81
2018-06-08T20:57:23.907Z,82.34
2018-06-08T20:59:51.665Z,82.60
2018-06-08T21:02:19.801Z,82.83
2018-06-08T21:04:47.444Z,82.96
2018-06-08T21:07:15.217Z,82.81
2018-06-08T21:09:43.059Z,82.97
2018-06-08T21:12:10.899Z,82.15
2018-06-08T21:14:38.656Z,82.63
2018-06-08T21:17:06.466Z,82.66
2018-06-08T21:19:34.176Z,82.45
2018-06-08T21:22:01.919Z,82.02
2018-06-08T21:24:29.924Z,81.29
2018-06-08T21:26:57.770Z,81.29
2018-06-08T21:29:25.561Z,81.18
2018-06-08T21:31:53.425Z,81.09
2018-06-08T21:34:21.166Z,82.00
2018-06-08T21:36:48.936Z,81.96
2018-06-08T21:39:16.660Z,81.55
2018-06-08T21:41:44.411Z,81.34
2018-06-08T21:44:12.167Z,80.57
2018-06-08T21:46:40.006Z,80.55
2018-06-08T21:49:07.723Z,80.41
2018-06-08T21:51:35.529Z,80.18
2018-06-08T21:54:03.272Z,80.35
2018-06-08T21:56:31.002Z,80.65
2018-06-08T21:58:58.800Z,80.58
2018-06-08T22:01:26.556Z,80.73
2018-06-08T22:03:54.373Z,81.13
2018-06-08T22:06:22.151Z,81.89
2018-06-08T22:08:49.885Z,82.07
2018-06-08T22:11:17.701Z,81.61
2018-06-08T22:13:45.463Z,82.62
2018-06-08T22:16:13.206Z,82.70
2018-06-08T22:18:40.947Z,81.90
2018-06-08T22:21:08.661Z,81.91
2018-06-08T22:23:36.417Z,81.89
2018-06-08T22:26:04.147Z,82.06
2018-06-08T22:28:31.881Z,81.42
2018-06-08T22:30:59.652Z,81.01
2018-06-08T22:33:27.459Z,81.20
2018-06-08T22:35:55.239Z,81.47
2018-06-08T22:38:22.947Z,81.26
2018-06-08T22:40:50.701Z,80.44
2018-06-08T22:43:18.529Z,80.73
2018-06-08T22:45:46.303Z,80.51
2018-06-08T22:48:14.045Z,80.85
2018-06-08T22:50:41.803Z,81.14
2018-06-08T22:53:09.577Z,81.20
2018-06-08T22:55:37.325Z,80.65
2018-06-08T22:58:05.072Z,80.21
2018-06-08T23:00:32.805Z,80.58
2018-06-08T23:03:00.588Z,79.85
2018-06-08T23:05:28.367Z,79.69
2018-06-08T23:07:56.153Z,80.13
2018-06-08T23:10:23.904Z,79.44
2018-06-08T23:12:51.667Z,80.86
2018-06-08T23:15:19.439Z,81.27
2018-06-08T23:17:47.258Z,82.11
2018-06-08T23:20:14.991Z,82.50
2018-06-08T23:22:42.734Z,82.85
2018-06-08T23:25:10.467Z,83.54
2018-06-08T23:27:38.201Z,83.19
2018-06-08T23:30:05.946Z,82.19
2018-06-08T23:32:33.767Z,83.21
2018-06-08T23:35:01.530Z,82.39
2018-06-08T23:37:29.215Z,82.49
2018-06-08T23:39:56.891Z,82.66
2018-06-08T23:42:24.613Z,84.11
2018-06-08T23:44:52.286Z,86.54
2018-06-08T23:47:20.041Z,87.68
2018-06-08T23:49:47.713Z,87.99
2018-06-08T23:52:15.369Z,87.97
2018-06-08T23:54:43.160Z,87.12
2018-06-08T23:57:10.897Z,86.72
2018-06-08T23:59:38.598Z,87.36
